Observation data for Denver City on 01/12/2018      Previous  Date  Next       Current Mesonet Observations  Soil Data  Daily Summary Page  Observations in Plain Language
KDVS 120600Z 14002KT M00/M12 A3027 RMK A01 T10011118  RH  041%=      5-min Rain = 0
KDVS 120605Z 15002KT M00/M12 A3028 RMK A01 T10021117  RH  041%=      5-min Rain = 0
KDVS 120610Z 17002KT M00/M12 A3028 RMK A01 T10021118  RH  041%=      5-min Rain = 0
KDVS 120615Z 17002KT M01/M12 A3027 RMK A01 T10071120  RH  042%=      5-min Rain = 0
KDVS 120620Z 17002KT M01/M12 A3027 RMK A01 T10131123  RH  043%=      5-min Rain = 0
KDVS 120625Z 16002KT M01/M12 A3027 RMK A01 T10141118  RH  045%=      5-min Rain = 0
KDVS 120630Z 16003KT M01/M12 A3027 RMK A01 T10131119  RH  044%=      5-min Rain = 0
KDVS 120635Z 15003KT M01/M12 A3027 RMK A01 T10131117  RH  045%=      5-min Rain = 0
KDVS 120640Z 14003KT M01/M12 A3026 RMK A01 T10101116  RH  044%=      5-min Rain = 0
KDVS 120645Z 14003KT M01/M12 A3026 RMK A01 T10081116  RH  044%=      5-min Rain = 0
KDVS 120650Z 14003KT M01/M12 A3026 RMK A01 T10081116  RH  043%=      5-min Rain = 0
KDVS 120655Z 15003KT M01/M12 A3026 RMK A01 T10091118  RH  043%=      5-min Rain = 0
KDVS 120700Z 15004KT M01/M12 A3026 RMK A01 T10111118  RH  044%=      5-min Rain = 0
KDVS 120705Z 16004KT M01/M12 A3025 RMK A01 T10141119  RH  044%=      5-min Rain = 0
KDVS 120710Z 17004KT M02/M12 A3025 RMK A01 T10161120  RH  045%=      5-min Rain = 0
KDVS 120715Z 17005KT M02/M12 A3025 RMK A01 T10211122  RH  045%=      5-min Rain = 0
KDVS 120720Z 17005KT M03/M12 A3025 RMK A01 T10251122  RH  047%=      5-min Rain = 0
KDVS 120725Z 17005KT M03/M12 A3025 RMK A01 T10261120  RH  048%=      5-min Rain = 0
KDVS 120730Z 17005KT M02/M12 A3025 RMK A01 T10231119  RH  047%=      5-min Rain = 0
KDVS 120735Z 17005KT M02/M12 A3025 RMK A01 T10211119  RH  047%=      5-min Rain = 0
KDVS 120740Z 17005KT M02/M12 A3024 RMK A01 T10191118  RH  047%=      5-min Rain = 0
KDVS 120745Z 18005KT M02/M12 A3025 RMK A01 T10201119  RH  046%=      5-min Rain = 0
KDVS 120750Z 18005KT M02/M12 A3025 RMK A01 T10211117  RH  047%=      5-min Rain = 0
KDVS 120755Z 17005KT M02/M12 A3025 RMK A01 T10191115  RH  047%=      5-min Rain = 0
KDVS 120800Z 17005KT M02/M12 A3024 RMK A01 T10161115  RH  047%=      5-min Rain = 0
KDVS 120805Z 17005KT M02/M12 A3025 RMK A01 T10161116  RH  046%=      5-min Rain = 0
KDVS 120810Z 17004KT M02/M12 A3025 RMK A01 T10171116  RH  047%=      5-min Rain = 0
KDVS 120815Z 18004KT M02/M12 A3025 RMK A01 T10181115  RH  047%=      5-min Rain = 0
KDVS 120820Z 19004KT M02/M12 A3026 RMK A01 T10191117  RH  047%=      5-min Rain = 0
KDVS 120825Z 20004KT M02/M12 A3025 RMK A01 T10221118  RH  048%=      5-min Rain = 0
KDVS 120830Z 22004KT M02/M12 A3025 RMK A01 T10231117  RH  048%=      5-min Rain = 0
KDVS 120835Z 21004KT M02/M12 A3025 RMK A01 T10221116  RH  048%=      5-min Rain = 0
KDVS 120840Z 21005KT M02/M12 A3025 RMK A01 T10231117  RH  048%=      5-min Rain = 0
KDVS 120845Z 22004KT M03/M12 A3025 RMK A01 T10271119  RH  049%=      5-min Rain = 0
KDVS 120850Z 22005KT M03/M12 A3025 RMK A01 T10301119  RH  050%=      5-min Rain = 0
KDVS 120855Z 22005KT M03/M12 A3025 RMK A01 T10321120  RH  051%=      5-min Rain = 0
KDVS 120900Z 22005KT M04/M12 A3025 RMK A01 T10361120  RH  052%=      5-min Rain = 0
KDVS 120905Z 21005KT M03/M12 A3024 RMK A01 T10341116  RH  053%=      5-min Rain = 0
KDVS 120910Z 21005KT M03/M12 A3024 RMK A01 T10321116  RH  052%=      5-min Rain = 0
KDVS 120915Z 21005KT M03/M12 A3024 RMK A01 T10321117  RH  052%=      5-min Rain = 0
KDVS 120920Z 21005KT M03/M11 A3024 RMK A01 T10321114  RH  053%=      5-min Rain = 0
KDVS 120925Z 21005KT M03/M12 A3024 RMK A01 T10331116  RH  052%=      5-min Rain = 0
KDVS 120930Z 20006KT M03/M12 A3023 RMK A01 T10341115  RH  053%=      5-min Rain = 0
KDVS 120935Z 21005KT M04/M12 A3023 RMK A01 T10361116  RH  053%=      5-min Rain = 0
KDVS 120940Z 22005KT M04/M12 A3023 RMK A01 T10381117  RH  054%=      5-min Rain = 0
KDVS 120945Z 21005KT M04/M12 A3023 RMK A01 T10411119  RH  054%=      5-min Rain = 0
KDVS 120950Z 22005KT M04/M12 A3022 RMK A01 T10421117  RH  055%=      5-min Rain = 0
KDVS 120955Z 20006KT M04/M12 A3022 RMK A01 T10391115  RH  055%=      5-min Rain = 0
KDVS 121000Z 20006KT M04/M12 A3022 RMK A01 T10401117  RH  055%=      5-min Rain = 0
KDVS 121005Z 20006KT M04/M12 A3022 RMK A01 T10431118  RH  056%=      5-min Rain = 0
KDVS 121010Z 20006KT M04/M12 A3022 RMK A01 T10431116  RH  056%=      5-min Rain = 0
KDVS 121015Z 21006KT M04/M12 A3022 RMK A01 T10421116  RH  056%=      5-min Rain = 0
KDVS 121020Z 21006KT M04/M12 A3022 RMK A01 T10431116  RH  056%=      5-min Rain = 0
KDVS 121025Z 21006KT M04/M12 A3022 RMK A01 T10421116  RH  056%=      5-min Rain = 0
KDVS 121030Z 21006KT M04/M12 A3022 RMK A01 T10441116  RH  057%=      5-min Rain = 0
KDVS 121035Z 21006KT M05/M12 A3022 RMK A01 T10471117  RH  057%=      5-min Rain = 0
KDVS 121040Z 21006KT M05/M12 A3022 RMK A01 T10471115  RH  058%=      5-min Rain = 0
KDVS 121045Z 21006KT M05/M12 A3021 RMK A01 T10461115  RH  058%=      5-min Rain = 0
KDVS 121050Z 20007KT M05/M12 A302 RMK A01 T10471116  RH  058%=      5-min Rain = 0
KDVS 121055Z 20007KT M05/M12 A3021 RMK A01 T10491117  RH  059%=      5-min Rain = 0
KDVS 121100Z 20008KT M05/M12 A302 RMK A01 T10521118  RH  059%=      5-min Rain = 0
KDVS 121105Z 20008KT M05/M12 A302 RMK A01 T10531117  RH  060%=      5-min Rain = 0
KDVS 121110Z 20008KT M05/M12 A3021 RMK A01 T10521115  RH  061%=      5-min Rain = 0
KDVS 121115Z 21007KT M05/M11 A302 RMK A01 T10501111  RH  062%=      5-min Rain = 0
KDVS 121120Z 21006KT M05/M11 A302 RMK A01 T10481113  RH  060%=      5-min Rain = 0
KDVS 121125Z 20007KT M05/M12 A3021 RMK A01 T10501115  RH  060%=      5-min Rain = 0
KDVS 121130Z 21006KT M05/M12 A3021 RMK A01 T10491115  RH  059%=      5-min Rain = 0
KDVS 121135Z 20007KT M05/M12 A3021 RMK A01 T10471115  RH  058%=      5-min Rain = 0
KDVS 121140Z 20007KT M05/M12 A3021 RMK A01 T10471116  RH  058%=      5-min Rain = 0
KDVS 121145Z 20007KT M05/M12 A302 RMK A01 T10471117  RH  058%=      5-min Rain = 0
KDVS 121150Z 20007KT M05/M12 A302 RMK A01 T10491117  RH  058%=      5-min Rain = 0
KDVS 121155Z 20007KT M05/M12 A302 RMK A01 T10501117  RH  059%=      5-min Rain = 0
KDVS 121200Z 20006KT M05/M12 A302 RMK A01 T10501116  RH  060%=      5-min Rain = 0
KDVS 121205Z 20007KT M05/M12 A302 RMK A01 T10501115  RH  060%=      5-min Rain = 0
KDVS 121210Z 19008KT M05/M12 A3019 RMK A01 T10521116  RH  060%=      5-min Rain = 0
KDVS 121215Z 19009KT M05/M12 A3019 RMK A01 T10501115  RH  060%=      5-min Rain = 0
KDVS 121220Z 20008KT M05/M12 A302 RMK A01 T10501116  RH  060%=      5-min Rain = 0
KDVS 121225Z 20008KT M05/M12 A302 RMK A01 T10511117  RH  060%=      5-min Rain = 0
KDVS 121230Z 20008KT M05/M12 A302 RMK A01 T10541119  RH  060%=      5-min Rain = 0
KDVS 121235Z 20007KT M06/M12 A302 RMK A01 T10571120  RH  061%=      5-min Rain = 0
KDVS 121240Z 21006KT M06/M12 A3021 RMK A01 T10581118  RH  062%=      5-min Rain = 0
KDVS 121245Z 21005KT M06/M12 A3021 RMK A01 T10551115  RH  062%=      5-min Rain = 0
KDVS 121250Z 21006KT M06/M12 A3021 RMK A01 T10551117  RH  061%=      5-min Rain = 0
KDVS 121255Z 20006KT M05/M12 A3021 RMK A01 T10531116  RH  061%=      5-min Rain = 0
KDVS 121300Z 21006KT M05/M12 A3022 RMK A01 T10521117  RH  060%=      5-min Rain = 0
KDVS 121305Z 20007KT M05/M12 A3022 RMK A01 T10521117  RH  060%=      5-min Rain = 0
KDVS 121310Z 20007KT M05/M12 A3022 RMK A01 T10501117  RH  059%=      5-min Rain = 0
KDVS 121315Z 20008KT M05/M12 A3022 RMK A01 T10511118  RH  059%=      5-min Rain = 0
KDVS 121320Z 20008KT M05/M12 A3022 RMK A01 T10521118  RH  060%=      5-min Rain = 0
KDVS 121325Z 20008KT M05/M12 A3022 RMK A01 T10531117  RH  060%=      5-min Rain = 0
KDVS 121330Z 20009KT M05/M12 A3022 RMK A01 T10541117  RH  060%=      5-min Rain = 0
KDVS 121335Z 20010KT M05/M12 A3022 RMK A01 T10541117  RH  061%=      5-min Rain = 0
KDVS 121340Z 20010KT M06/M12 A3022 RMK A01 T10551116  RH  062%=      5-min Rain = 0
KDVS 121345Z 20009KT M05/M11 A3022 RMK A01 T10541114  RH  062%=      5-min Rain = 0
KDVS 121350Z 20009KT M05/M11 A3022 RMK A01 T10531113  RH  062%=      5-min Rain = 0
KDVS 121355Z 20008KT M05/M11 A3022 RMK A01 T10511112  RH  062%=      5-min Rain = 0
KDVS 121400Z 21008KT M05/M11 A3022 RMK A01 T10491112  RH  061%=      5-min Rain = 0
KDVS 121405Z 21008KT M05/M11 A3022 RMK A01 T10481113  RH  060%=      5-min Rain = 0
KDVS 121410Z 21007KT M05/M11 A3022 RMK A01 T10461113  RH  059%=      5-min Rain = 0
KDVS 121415Z 21008KT M05/M11 A3022 RMK A01 T10451112  RH  059%=      5-min Rain = 0
KDVS 121420Z 21009KT M04/M11 A3022 RMK A01 T10401111  RH  058%=      5-min Rain = 0
KDVS 121425Z 20009KT M04/M11 A3021 RMK A01 T10351110  RH  056%=      5-min Rain = 0
KDVS 121430Z 20010KT M03/M11 A3021 RMK A01 T10341110  RH  055%=      5-min Rain = 0
KDVS 121435Z 20010KT M03/M11 A3021 RMK A01 T10321111  RH  054%=      5-min Rain = 0
KDVS 121440Z 19009KT M03/M11 A3021 RMK A01 T10301111  RH  053%=      5-min Rain = 0
KDVS 121445Z 19008KT M03/M11 A3021 RMK A01 T10271111  RH  052%=      5-min Rain = 0
KDVS 121450Z 19008KT M02/M11 A3021 RMK A01 T10221110  RH  051%=      5-min Rain = 0
KDVS 121455Z 19007KT M02/M11 A3021 RMK A01 T10171110  RH  049%=      5-min Rain = 0
KDVS 121500Z 18008KT M01/M11 A3021 RMK A01 T10111109  RH  047%=      5-min Rain = 0
KDVS 121505Z 18010KT M00/M11 A3021 RMK A01 T10021108  RH  044%=      5-min Rain = 0
KDVS 121510Z 18011KT 01/M11 A3021 RMK A01 T00051110  RH  042%=      5-min Rain = 0
KDVS 121515Z 18012KT 01/M11 A3021 RMK A01 T00111112  RH  039%=      5-min Rain = 0
KDVS 121520Z 18012KT 02/M12 A3021 RMK A01 T00161116  RH  036%=      5-min Rain = 0
KDVS 121525Z 18012G17KT 02/M12 A3021 RMK A01 T00191121  RH  034%=      5-min Rain = 0
KDVS 121530Z 18013G18KT 02/M12 A3021 RMK A01 T00231122  RH  033%=      5-min Rain = 0
KDVS 121535Z 17014G20KT 03/M12 A302 RMK A01 T00271124  RH  032%=      5-min Rain = 0
KDVS 121540Z 18016G21KT 03/M13 A302 RMK A01 T00271126  RH  031%=      5-min Rain = 0
KDVS 121545Z 17015KT 03/M12 A302 RMK A01 T00291123  RH  032%=      5-min Rain = 0
KDVS 121550Z 18014KT 03/M12 A302 RMK A01 T00331120  RH  032%=      5-min Rain = 0
KDVS 121555Z 18014KT 04/M12 A302 RMK A01 T00361118  RH  031%=      5-min Rain = 0
KDVS 121600Z 18016G21KT 04/M12 A302 RMK A01 T00351119  RH  031%=      5-min Rain = 0
KDVS 121605Z 17013G19KT 04/M12 A3021 RMK A01 T00351118  RH  031%=      5-min Rain = 0
KDVS 121610Z 17012KT 04/M12 A3021 RMK A01 T00361117  RH  031%=      5-min Rain = 0
KDVS 121615Z 17011KT 04/M12 A3022 RMK A01 T00391116  RH  031%=      5-min Rain = 0
KDVS 121620Z 17011KT 04/M12 A3022 RMK A01 T00421116  RH  030%=      5-min Rain = 0
KDVS 121625Z 16011KT 04/M12 A3022 RMK A01 T00441116  RH  030%=      5-min Rain = 0
KDVS 121630Z 18013KT 04/M12 A3022 RMK A01 T00431117  RH  030%=      5-min Rain = 0
KDVS 121635Z 17011KT 04/M12 A3022 RMK A01 T00441116  RH  030%=      5-min Rain = 0
KDVS 121640Z 16013KT 04/M12 A3022 RMK A01 T00441117  RH  030%=      5-min Rain = 0
KDVS 121645Z 17011KT 05/M12 A3022 RMK A01 T00451116  RH  030%=      5-min Rain = 0
KDVS 121650Z 17012KT 05/M12 A3022 RMK A01 T00501115  RH  029%=      5-min Rain = 0
KDVS 121655Z 17011KT 05/M12 A3022 RMK A01 T00501115  RH  029%=      5-min Rain = 0
KDVS 121700Z 16011KT 05/M11 A3022 RMK A01 T00531114  RH  029%=      5-min Rain = 0
KDVS 121705Z 16010KT 05/M11 A3022 RMK A01 T00531113  RH  029%=      5-min Rain = 0
KDVS 121710Z 17010G15KT 05/M11 A3022 RMK A01 T00531112  RH  029%=      5-min Rain = 0
KDVS 121715Z 17010KT 06/M11 A3021 RMK A01 T00581111  RH  028%=      5-min Rain = 0
KDVS 121720Z 18011KT 07/M11 A3021 RMK A01 T00651110  RH  027%=      5-min Rain = 0
KDVS 121725Z 19012KT 07/M11 A302 RMK A01 T00671111  RH  027%=      5-min Rain = 0
KDVS 121730Z 19011G16KT 07/M11 A302 RMK A01 T00671112  RH  027%=      5-min Rain = 0
KDVS 121735Z 18011KT 07/M11 A302 RMK A01 T00681112  RH  026%=      5-min Rain = 0
KDVS 121740Z 18012KT 07/M11 A3019 RMK A01 T00701113  RH  026%=      5-min Rain = 0
KDVS 121745Z 19011KT 07/M11 A3019 RMK A01 T00721113  RH  025%=      5-min Rain = 0
KDVS 121750Z 18009KT 07/M11 A3019 RMK A01 T00741113  RH  025%=      5-min Rain = 0
KDVS 121755Z 18012G17KT 08/M11 A3018 RMK A01 T00761113  RH  025%=      5-min Rain = 0
KDVS 121800Z 18010G15KT 08/M11 A3018 RMK A01 T00781113  RH  024%=      5-min Rain = 0
KDVS 121805Z 18011KT 08/M11 A3018 RMK A01 T00801111  RH  024%=      5-min Rain = 0
KDVS 121810Z 19011KT 08/M11 A3018 RMK A01 T00821110  RH  024%=      5-min Rain = 0
KDVS 121815Z 19010KT 09/M11 A3017 RMK A01 T00851109  RH  024%=      5-min Rain = 0
KDVS 121820Z 19010G15KT 09/M11 A3017 RMK A01 T00881106  RH  024%=      5-min Rain = 0
KDVS 121825Z 19010KT 09/M10 A3016 RMK A01 T00921104  RH  024%=      5-min Rain = 0
KDVS 121830Z 20010KT 09/M10 A3015 RMK A01 T00941101  RH  024%=      5-min Rain = 0
KDVS 121835Z 19011KT 09/M10 A3015 RMK A01 T00931101  RH  024%=      5-min Rain = 0
KDVS 121840Z 20011G16KT 10/M10 A3014 RMK A01 T00971098  RH  024%=      5-min Rain = 0
KDVS 121845Z 20010G15KT 10/M10 A3014 RMK A01 T01001098  RH  024%=      5-min Rain = 0
KDVS 121850Z 21010G15KT 10/M10 A3014 RMK A01 T01031097  RH  023%=      5-min Rain = 0
KDVS 121855Z 20009G15KT 11/M10 A3014 RMK A01 T01051096  RH  023%=      5-min Rain = 0
KDVS 121900Z 21011KT 10/M10 A3013 RMK A01 T01041096  RH  023%=      5-min Rain = 0
KDVS 121905Z 21011KT 11/M10 A3013 RMK A01 T01081095  RH  023%=      5-min Rain = 0
KDVS 121910Z 21011KT 11/M10 A3012 RMK A01 T01081095  RH  023%=      5-min Rain = 0
KDVS 121915Z 21010G15KT 11/M09 A3012 RMK A01 T01101094  RH  023%=      5-min Rain = 0
KDVS 121920Z 21010KT 11/M09 A3012 RMK A01 T01111094  RH  023%=      5-min Rain = 0
KDVS 121925Z 21011KT 12/M09 A3011 RMK A01 T01151093  RH  022%=      5-min Rain = 0
KDVS 121930Z 20011KT 12/M09 A301 RMK A01 T01191093  RH  022%=      5-min Rain = 0
KDVS 121935Z 21011G16KT 12/M09 A301 RMK A01 T01191092  RH  022%=      5-min Rain = 0
KDVS 121940Z 21010G15KT 12/M09 A301 RMK A01 T01201091  RH  022%=      5-min Rain = 0
KDVS 121945Z 21011KT 12/M09 A3009 RMK A01 T01241090  RH  021%=      5-min Rain = 0
KDVS 121950Z 21012KT 13/M09 A3009 RMK A01 T01261090  RH  021%=      5-min Rain = 0
KDVS 121955Z 21010G15KT 13/M09 A3009 RMK A01 T01261088  RH  021%=      5-min Rain = 0
KDVS 122000Z 20009KT 13/M09 A3009 RMK A01 T01311085  RH  021%=      5-min Rain = 0
KDVS 122005Z 22011KT 14/M08 A3008 RMK A01 T01361084  RH  021%=      5-min Rain = 0
KDVS 122010Z 22010G16KT 14/M08 A3008 RMK A01 T01401083  RH  021%=      5-min Rain = 0
KDVS 122015Z 24011G17KT 14/M08 A3008 RMK A01 T01421082  RH  020%=      5-min Rain = 0
KDVS 122020Z 25010G15KT 14/M08 A3008 RMK A01 T01431082  RH  020%=      5-min Rain = 0
KDVS 122025Z 23010KT 15/M08 A3007 RMK A01 T01451082  RH  020%=      5-min Rain = 0
KDVS 122030Z 23010KT 15/M08 A3007 RMK A01 T01471082  RH  020%=      5-min Rain = 0
KDVS 122035Z 25007KT 15/M08 A3007 RMK A01 T01491081  RH  020%=      5-min Rain = 0
KDVS 122040Z 25006KT 15/M08 A3007 RMK A01 T01511082  RH  019%=      5-min Rain = 0
KDVS 122045Z 25009KT 15/M08 A3007 RMK A01 T01541081  RH  019%=      5-min Rain = 0
KDVS 122050Z 25008KT 16/M08 A3006 RMK A01 T01571081  RH  019%=      5-min Rain = 0
KDVS 122055Z 25007KT 16/M08 A3006 RMK A01 T01591081  RH  018%=      5-min Rain = 0
KDVS 122100Z 26007KT 16/M08 A3006 RMK A01 T01611083  RH  018%=      5-min Rain = 0
KDVS 122105Z 26008G13KT 16/M08 A3006 RMK A01 T01631083  RH  018%=      5-min Rain = 0
KDVS 122110Z 25009G14KT 17/M08 A3006 RMK A01 T01651083  RH  017%=      5-min Rain = 0
KDVS 122115Z 28011KT 17/M09 A3006 RMK A01 T01671086  RH  017%=      5-min Rain = 0
KDVS 122120Z 28011KT 17/M09 A3006 RMK A01 T01681087  RH  017%=      5-min Rain = 0
KDVS 122125Z 29009KT 17/M09 A3006 RMK A01 T01691087  RH  016%=      5-min Rain = 0
KDVS 122130Z 29011G16KT 17/M09 A3006 RMK A01 T01691087  RH  016%=      5-min Rain = 0
KDVS 122135Z 28009KT 17/M09 A3005 RMK A01 T01701090  RH  016%=      5-min Rain = 0
KDVS 122140Z 30012G17KT 17/M09 A3005 RMK A01 T01711090  RH  016%=      5-min Rain = 0
KDVS 122145Z 30012KT 17/M09 A3005 RMK A01 T01701090  RH  016%=      5-min Rain = 0
KDVS 122150Z 30010G16KT 17/M09 A3006 RMK A01 T01701091  RH  016%=      5-min Rain = 0
KDVS 122155Z 29011G16KT 17/M09 A3006 RMK A01 T01721090  RH  016%=      5-min Rain = 0
KDVS 122200Z 30010KT 17/M09 A3006 RMK A01 T01731090  RH  016%=      5-min Rain = 0
KDVS 122205Z 30009G14KT 17/M09 A3006 RMK A01 T01731089  RH  016%=      5-min Rain = 0
KDVS 122210Z 30010KT 17/M09 A3006 RMK A01 T01731091  RH  016%=      5-min Rain = 0
KDVS 122215Z 31011G16KT 17/M09 A3005 RMK A01 T01731090  RH  016%=      5-min Rain = 0
KDVS 122220Z 31013KT 17/M09 A3005 RMK A01 T01731090  RH  016%=      5-min Rain = 0
KDVS 122225Z 31011KT 17/M09 A3005 RMK A01 T01721090  RH  016%=      5-min Rain = 0
KDVS 122230Z 30009KT 17/M09 A3005 RMK A01 T01741091  RH  015%=      5-min Rain = 0
KDVS 122235Z 31008KT 17/M09 A3006 RMK A01 T01731089  RH  016%=      5-min Rain = 0
KDVS 122240Z 31010G15KT 17/M09 A3006 RMK A01 T01711090  RH  016%=      5-min Rain = 0
KDVS 122245Z 31009KT 17/M09 A3006 RMK A01 T01711089  RH  016%=      5-min Rain = 0
KDVS 122250Z 31010KT 17/M09 A3006 RMK A01 T01711087  RH  016%=      5-min Rain = 0
KDVS 122255Z 32009KT 17/M09 A3006 RMK A01 T01711087  RH  016%=      5-min Rain = 0
KDVS 122300Z 32007KT 17/M09 A3006 RMK A01 T01731086  RH  016%=      5-min Rain = 0
KDVS 122305Z 32012G17KT 17/M09 A3006 RMK A01 T01741087  RH  016%=      5-min Rain = 0
KDVS 122310Z 33013KT 17/M09 A3006 RMK A01 T01711087  RH  016%=      5-min Rain = 0
KDVS 122315Z 33013KT 17/M09 A3006 RMK A01 T01701085  RH  017%=      5-min Rain = 0
KDVS 122320Z 32012KT 17/M08 A3007 RMK A01 T01681084  RH  017%=      5-min Rain = 0
KDVS 122325Z 33011KT 17/M08 A3007 RMK A01 T01671082  RH  017%=      5-min Rain = 0
KDVS 122330Z 33008KT 17/M08 A3008 RMK A01 T01651081  RH  018%=      5-min Rain = 0
KDVS 122335Z 33007KT 16/M08 A3008 RMK A01 T01641080  RH  018%=      5-min Rain = 0
KDVS 122340Z 34006KT 16/M08 A3008 RMK A01 T01621079  RH  018%=      5-min Rain = 0
KDVS 122345Z 34005KT 16/M08 A3008 RMK A01 T01591079  RH  019%=      5-min Rain = 0
KDVS 122350Z 04007KT 15/M08 A3008 RMK A01 T01531082  RH  019%=      5-min Rain = 0
KDVS 122355Z 09005KT 14/M09 A3008 RMK A01 T01351085  RH  021%=      5-min Rain = 0
KDVS 130000Z 10008KT 12/M09 A3009 RMK A01 T01241088  RH  022%=      5-min Rain = 0
KDVS 130005Z 12011KT 11/M09 A3009 RMK A01 T01111090  RH  023%=      5-min Rain = 0
KDVS 130010Z 12008KT 10/M09 A301 RMK A01 T01021092  RH  024%=      5-min Rain = 0
KDVS 130015Z 12009KT 10/M09 A301 RMK A01 T00961092  RH  025%=      5-min Rain = 0
KDVS 130020Z 12010KT 09/M09 A3011 RMK A01 T00921093  RH  026%=      5-min Rain = 0
KDVS 130025Z 11008KT 09/M09 A3011 RMK A01 T00881094  RH  026%=      5-min Rain = 0
KDVS 130030Z 12007KT 09/M09 A3011 RMK A01 T00861094  RH  027%=      5-min Rain = 0
KDVS 130035Z 12010KT 08/M09 A3011 RMK A01 T00821094  RH  028%=      5-min Rain = 0
KDVS 130040Z 12009KT 08/M10 A3012 RMK A01 T00801095  RH  028%=      5-min Rain = 0
KDVS 130045Z 12008KT 08/M10 A3012 RMK A01 T00751096  RH  029%=      5-min Rain = 0
KDVS 130050Z 11008KT 07/M10 A3012 RMK A01 T00711096  RH  029%=      5-min Rain = 0
KDVS 130055Z 12005KT 07/M10 A3013 RMK A01 T00691096  RH  030%=      5-min Rain = 0
KDVS 130100Z 12006KT 07/M10 A3013 RMK A01 T00671097  RH  030%=      5-min Rain = 0
KDVS 130105Z 13010KT 07/M10 A3013 RMK A01 T00671096  RH  030%=      5-min Rain = 0
KDVS 130110Z 12010KT 07/M10 A3014 RMK A01 T00671096  RH  030%=      5-min Rain = 0
KDVS 130115Z 12007KT 07/M10 A3014 RMK A01 T00651097  RH  030%=      5-min Rain = 0
KDVS 130120Z 13007KT 06/M10 A3015 RMK A01 T00601099  RH  031%=      5-min Rain = 0
KDVS 130125Z 13007KT 05/M10 A3015 RMK A01 T00541100  RH  032%=      5-min Rain = 0
KDVS 130130Z 14007KT 05/M10 A3015 RMK A01 T00481101  RH  033%=      5-min Rain = 0
KDVS 130135Z 13008KT 05/M10 A3015 RMK A01 T00491099  RH  033%=      5-min Rain = 0
KDVS 130140Z 11006KT 05/M10 A3016 RMK A01 T00501099  RH  033%=      5-min Rain = 0
KDVS 130145Z 11005KT 05/M10 A3016 RMK A01 T00471100  RH  033%=      5-min Rain = 0
KDVS 130150Z 12005KT 05/M10 A3016 RMK A01 T00471101  RH  033%=      5-min Rain = 0
KDVS 130155Z 15005KT 04/M10 A3017 RMK A01 T00441101  RH  034%=      5-min Rain = 0
KDVS 130200Z 16006KT 04/M10 A3017 RMK A01 T00441101  RH  034%=      5-min Rain = 0
KDVS 130205Z 15004KT 04/M10 A3017 RMK A01 T00431101  RH  034%=      5-min Rain = 0
KDVS 130210Z 10003KT 04/M10 A3018 RMK A01 T00391103  RH  035%=      5-min Rain = 0
KDVS 130215Z 11001KT 03/M10 A3018 RMK A01 T00331102  RH  036%=      5-min Rain = 0
KDVS 130220Z 21003KT 04/M10 A3018 RMK A01 T00361100  RH  036%=      5-min Rain = 0
KDVS 130225Z 22001KT 04/M10 A3018 RMK A01 T00391102  RH  035%=      5-min Rain = 0
KDVS 130230Z 10004G11KT 04/M10 A3019 RMK A01 T00411098  RH  035%=      5-min Rain = 0
KDVS 130235Z 12008KT 05/M10 A3019 RMK A01 T00511099  RH  033%=      5-min Rain = 0
KDVS 130240Z 12006KT 05/M10 A3019 RMK A01 T00541099  RH  032%=      5-min Rain = 0
KDVS 130245Z 13006KT 05/M10 A3019 RMK A01 T00521100  RH  032%=      5-min Rain = 0
KDVS 130250Z 12007KT 05/M10 A302 RMK A01 T00461101  RH  033%=      5-min Rain = 0
KDVS 130255Z 10007KT 04/M10 A302 RMK A01 T00381102  RH  035%=      5-min Rain = 0
KDVS 130300Z 10008KT 03/M10 A302 RMK A01 T00291103  RH  037%=      5-min Rain = 0
KDVS 130305Z 09009KT 02/M10 A302 RMK A01 T00221103  RH  039%=      5-min Rain = 0
KDVS 130310Z 09009KT 02/M10 A3021 RMK A01 T00201102  RH  040%=      5-min Rain = 0
KDVS 130315Z 09009KT 02/M10 A3021 RMK A01 T00211101  RH  040%=      5-min Rain = 0
KDVS 130320Z 10008KT 02/M10 A3022 RMK A01 T00211101  RH  040%=      5-min Rain = 0
KDVS 130325Z 11008KT 02/M10 A3022 RMK A01 T00201102  RH  040%=      5-min Rain = 0
KDVS 130330Z 11009KT 02/M10 A3022 RMK A01 T00211101  RH  040%=      5-min Rain = 0
KDVS 130335Z 11008KT 02/M10 A3022 RMK A01 T00221101  RH  039%=      5-min Rain = 0
KDVS 130340Z 12008KT 02/M10 A3022 RMK A01 T00231101  RH  039%=      5-min Rain = 0
KDVS 130345Z 10009KT 03/M10 A3023 RMK A01 T00271101  RH  038%=      5-min Rain = 0
KDVS 130350Z 10010KT 03/M10 A3023 RMK A01 T00331103  RH  036%=      5-min Rain = 0
KDVS 130355Z 11008KT 03/M10 A3023 RMK A01 T00341104  RH  035%=      5-min Rain = 0
KDVS 130400Z 10010KT 03/M11 A3024 RMK A01 T00311105  RH  036%=      5-min Rain = 0
KDVS 130405Z 10010KT 03/M11 A3024 RMK A01 T00301106  RH  036%=      5-min Rain = 0
KDVS 130410Z 10011KT 03/M11 A3024 RMK A01 T00321109  RH  035%=      5-min Rain = 0
KDVS 130415Z 10011KT 03/M11 A3025 RMK A01 T00321111  RH  034%=      5-min Rain = 0
KDVS 130420Z 09011KT 03/M11 A3026 RMK A01 T00321111  RH  034%=      5-min Rain = 0
KDVS 130425Z 07012KT 03/M11 A3027 RMK A01 T00311111  RH  034%=      5-min Rain = 0
KDVS 130430Z 08011KT 03/M11 A3027 RMK A01 T00281107  RH  036%=      5-min Rain = 0
KDVS 130435Z 07012KT 02/M11 A3028 RMK A01 T00241106  RH  037%=      5-min Rain = 0
KDVS 130440Z 08013G18KT 02/M11 A3028 RMK A01 T00231108  RH  037%=      5-min Rain = 0
KDVS 130445Z 08014KT 02/M11 A3029 RMK A01 T00241112  RH  036%=      5-min Rain = 0
KDVS 130450Z 08013KT 02/M12 A3029 RMK A01 T00231115  RH  035%=      5-min Rain = 0
KDVS 130455Z 08014G20KT 02/M12 A3029 RMK A01 T00221118  RH  035%=      5-min Rain = 0
KDVS 130500Z 07014KT 02/M12 A303 RMK A01 T00201118  RH  035%=      5-min Rain = 0
KDVS 130505Z 08012G20KT 02/M12 A303 RMK A01 T00171122  RH  035%=      5-min Rain = 0
KDVS 130510Z 07015G20KT 01/M12 A3031 RMK A01 T00141122  RH  035%=      5-min Rain = 0
KDVS 130515Z 07013G18KT 01/M13 A3032 RMK A01 T00101125  RH  035%=      5-min Rain = 0
KDVS 130520Z 07013KT 01/M13 A3032 RMK A01 T00071125  RH  036%=      5-min Rain = 0
KDVS 130525Z 07013KT 01/M13 A3032 RMK A01 T00051126  RH  036%=      5-min Rain = 0
KDVS 130530Z 07012KT 00/M13 A3032 RMK A01 T00041127  RH  036%=      5-min Rain = 0
KDVS 130535Z 07013G19KT 00/M13 A3033 RMK A01 T00021129  RH  036%=      5-min Rain = 0
KDVS 130540Z 07013KT 00/M13 A3033 RMK A01 T00021130  RH  036%=      5-min Rain = 0
KDVS 130545Z 07012KT 00/13 A3033 RMK A01 T00-00-131  RH  036%=      5-min Rain = 0
KDVS 130550Z 07011KT M00/M13 A3034 RMK A01 T10011131  RH  037%=      5-min Rain = 0
KDVS 130555Z 06012G19KT M00/M13 A3034 RMK A01 T10021132  RH  037%=      5-min Rain = 0

Page generated in 0.0338 seconds.